createdAt,value
2022-08-28T00:02:33.956Z,99734.39
2022-08-28T00:07:36.625Z,99737.92
2022-08-28T00:12:40.393Z,99743.31
2022-08-28T00:17:43.485Z,99742.52
2022-08-28T00:22:46.982Z,99740.20
2022-08-28T00:27:55.144Z,99741.02
2022-08-28T00:33:06.467Z,99732.47
2022-08-28T00:38:09.801Z,99730.08
2022-08-28T00:43:25.961Z,99725.73
2022-08-28T00:48:28.771Z,99722.04
2022-08-28T00:53:32.952Z,99716.66
2022-08-28T00:58:36.251Z,99720.90
2022-08-28T01:03:39.679Z,99718.39
2022-08-28T01:08:45.674Z,99722.22
2022-08-28T01:13:54.659Z,99716.94
2022-08-28T01:18:58.150Z,99718.84
2022-08-28T01:24:08.132Z,99716.21
2022-08-28T01:29:12.014Z,99717.95
2022-08-28T01:34:15.072Z,99713.39
2022-08-28T01:39:20.360Z,99711.96
2022-08-28T01:44:25.862Z,99722.89
2022-08-28T01:49:29.537Z,99733.98
2022-08-28T01:54:32.154Z,99732.78
2022-08-28T01:59:34.850Z,99738.42
2022-08-28T02:04:38.828Z,99740.02
2022-08-28T02:09:41.468Z,99740.34
2022-08-28T02:14:44.141Z,99733.42
2022-08-28T02:19:46.775Z,99732.65
2022-08-28T02:24:49.497Z,99726.80
2022-08-28T02:29:53.320Z,99728.62
2022-08-28T02:34:56.698Z,99727.05
2022-08-28T02:39:59.962Z,99726.66
2022-08-28T02:45:02.955Z,99722.41
2022-08-28T02:50:07.562Z,99725.60
2022-08-28T02:55:11.578Z,99724.94
2022-08-28T03:00:16.418Z,99727.00
2022-08-28T03:05:21.162Z,99726.68
2022-08-28T03:10:24.114Z,99722.90
2022-08-28T03:15:26.813Z,99721.92
2022-08-28T03:20:29.411Z,99721.80
2022-08-28T03:25:32.069Z,99723.80
2022-08-28T03:30:34.761Z,99720.58
2022-08-28T03:35:37.895Z,99719.33
2022-08-28T03:40:42.690Z,99720.35
2022-08-28T03:46:03.759Z,99724.02
2022-08-28T03:51:08.135Z,99725.84
2022-08-28T03:56:12.546Z,99725.13
2022-08-28T04:01:15.185Z,99729.18
2022-08-28T04:06:18.464Z,99725.52
2022-08-28T04:11:21.055Z,99731.86
2022-08-28T04:16:24.694Z,99733.95
2022-08-28T04:21:28.532Z,99736.77
2022-08-28T04:26:36.530Z,99737.77
2022-08-28T04:31:40.163Z,99737.98
2022-08-28T04:36:43.311Z,99735.55
2022-08-28T04:41:46.407Z,99726.77
2022-08-28T04:46:48.984Z,99720.31
2022-08-28T04:51:52.232Z,99721.64
2022-08-28T04:56:54.931Z,99719.42
2022-08-28T05:01:57.564Z,99720.11
2022-08-28T05:07:00.192Z,99718.53
2022-08-28T05:12:04.157Z,99720.52
2022-08-28T05:17:06.859Z,99719.50
2022-08-28T05:22:10.488Z,99725.39
2022-08-28T05:27:13.137Z,99729.45
2022-08-28T05:32:16.080Z,99729.30
2022-08-28T05:37:19.783Z,99728.79
2022-08-28T05:42:22.533Z,99728.33
2022-08-28T05:47:25.333Z,99723.87
2022-08-28T05:52:28.845Z,99723.68
2022-08-28T05:57:31.521Z,99721.54
2022-08-28T06:02:36.784Z,99725.97
2022-08-28T06:07:39.976Z,99730.51
2022-08-28T06:12:42.573Z,99734.26
2022-08-28T06:17:45.430Z,99731.42
2022-08-28T06:22:50.120Z,99729.98
2022-08-28T06:27:52.713Z,99738.21
2022-08-28T06:32:55.333Z,99743.20
2022-08-28T06:37:59.020Z,99744.09
2022-08-28T06:43:02.015Z,99742.47
2022-08-28T06:48:04.710Z,99742.77
2022-08-28T06:53:09.290Z,99744.41
2022-08-28T06:58:13.046Z,99746.84
2022-08-28T07:03:15.902Z,99752.14
2022-08-28T07:08:20.482Z,99750.64
2022-08-28T07:13:23.384Z,99756.33
2022-08-28T07:18:26.048Z,99758.27
2022-08-28T07:23:29.434Z,99759.44
2022-08-28T07:28:32.355Z,99763.25
2022-08-28T07:33:35.175Z,99757.81
2022-08-28T07:38:38.421Z,99758.94
2022-08-28T07:44:00.013Z,99758.95
2022-08-28T07:49:02.745Z,99751.58
2022-08-28T07:54:06.176Z,99750.85
2022-08-28T07:59:11.752Z,99756.63
2022-08-28T08:04:17.567Z,99752.84
2022-08-28T08:09:20.580Z,99747.46
2022-08-28T08:14:25.252Z,99749.59
2022-08-28T08:19:27.913Z,99746.01
2022-08-28T08:24:30.536Z,99741.04
2022-08-28T08:29:35.906Z,99739.32
2022-08-28T08:34:41.304Z,99742.87
2022-08-28T08:39:43.986Z,99745.08
2022-08-28T08:44:47.763Z,99740.70
2022-08-28T08:50:10.594Z,99739.40
2022-08-28T08:55:27.447Z,99737.56
2022-08-28T09:00:37.715Z,99736.95
2022-08-28T09:05:50.168Z,99741.19
2022-08-28T09:11:01.056Z,99739.11
2022-08-28T09:16:05.156Z,99738.14
2022-08-28T09:21:07.878Z,99738.35
2022-08-28T09:26:21.387Z,99736.41
2022-08-28T09:31:32.329Z,99735.77
2022-08-28T09:36:36.857Z,99731.98
2022-08-28T09:42:01.226Z,99732.02
2022-08-28T09:47:03.829Z,99734.13
2022-08-28T09:52:23.046Z,99730.96
2022-08-28T09:57:27.968Z,99724.27
2022-08-28T10:02:41.391Z,99717.13
2022-08-28T10:07:47.269Z,99719.26
2022-08-28T10:12:50.506Z,99724.98
2022-08-28T10:18:09.121Z,99726.41
2022-08-28T10:23:24.905Z,99711.20
2022-08-28T10:28:33.731Z,99716.83
2022-08-28T10:33:54.798Z,99716.24
2022-08-28T10:39:03.445Z,99708.80
2022-08-28T10:44:07.787Z,99708.83
2022-08-28T10:49:22.330Z,99704.69
2022-08-28T10:54:30.509Z,99703.44
2022-08-28T10:59:41.831Z,99700.64
2022-08-28T11:04:47.140Z,99702.90
2022-08-28T11:09:50.215Z,99700.73
2022-08-28T11:14:52.773Z,99696.36
2022-08-28T11:20:01.489Z,99694.26
2022-08-28T11:25:33.938Z,99695.08
2022-08-28T11:30:38.828Z,99685.98
2022-08-28T11:35:43.754Z,99682.92
2022-08-28T11:40:51.134Z,99692.30
2022-08-28T11:45:55.138Z,99684.39
2022-08-28T11:51:02.391Z,99685.25
2022-08-28T11:56:16.044Z,99687.64
2022-08-28T12:01:37.675Z,99690.48
2022-08-28T12:06:40.735Z,99690.39
2022-08-28T12:11:43.692Z,99681.89
2022-08-28T12:16:58.604Z,99678.27
2022-08-28T12:22:09.971Z,99679.89
2022-08-28T12:27:13.825Z,99679.63
2022-08-28T12:32:35.209Z,99683.59
2022-08-28T12:38:09.373Z,99675.30
2022-08-28T12:43:15.377Z,99667.80
2022-08-28T12:48:25.148Z,99662.23
2022-08-28T12:53:27.889Z,99659.36
2022-08-28T12:58:34.115Z,99656.94
2022-08-28T13:03:48.029Z,99654.59
2022-08-28T13:08:53.922Z,99649.06
2022-08-28T13:13:56.736Z,99643.99
2022-08-28T13:19:05.577Z,99642.40
2022-08-28T13:24:27.565Z,99636.78
2022-08-28T13:29:31.069Z,99641.20
2022-08-28T13:34:34.964Z,99642.90
2022-08-28T13:39:37.921Z,99635.27
2022-08-28T13:44:53.330Z,99635.04
2022-08-28T13:49:56.018Z,99631.36
2022-08-28T13:54:58.806Z,99626.63
2022-08-28T14:00:02.342Z,99630.19
2022-08-28T14:05:05.953Z,99624.34
2022-08-28T14:10:12.164Z,99621.30
2022-08-28T14:15:16.461Z,99618.92
2022-08-28T14:20:19.977Z,99614.30
2022-08-28T14:25:22.619Z,99615.48
2022-08-28T14:30:26.345Z,99608.92
2022-08-28T14:35:28.918Z,99611.84
2022-08-28T14:40:31.683Z,99610.32
2022-08-28T14:45:41.293Z,99611.16
2022-08-28T14:50:48.224Z,99611.02
2022-08-28T14:55:50.906Z,99611.16
2022-08-28T15:00:53.555Z,99610.40
2022-08-28T15:06:00.176Z,99613.67
2022-08-28T15:11:18.415Z,99609.73
2022-08-28T15:16:29.894Z,99607.02
2022-08-28T15:21:34.926Z,99607.09
2022-08-28T15:26:40.171Z,99607.86
2022-08-28T15:31:45.596Z,99604.40
2022-08-28T15:36:55.301Z,99598.23
2022-08-28T15:41:59.645Z,99606.30
2022-08-28T15:47:03.215Z,99600.30
2022-08-28T15:52:06.729Z,99599.67
2022-08-28T15:57:10.083Z,99598.77
2022-08-28T16:02:12.819Z,99607.05
2022-08-28T16:07:15.841Z,99626.39
2022-08-28T16:12:18.468Z,99643.05
2022-08-28T16:17:21.510Z,99666.00
2022-08-28T16:22:24.524Z,99686.63
2022-08-28T16:27:27.296Z,99701.38
2022-08-28T16:32:31.455Z,99717.92
2022-08-28T16:37:39.717Z,99726.15
2022-08-28T16:42:51.463Z,99724.14
2022-08-28T16:47:54.861Z,99721.19
2022-08-28T16:53:02.456Z,99715.76
2022-08-28T16:58:07.628Z,99708.50
2022-08-28T17:03:10.975Z,99699.33
2022-08-28T17:08:13.893Z,99695.27
2022-08-28T17:13:16.795Z,99699.45
2022-08-28T17:18:19.392Z,99710.19
2022-08-28T17:23:22.019Z,99711.52
2022-08-28T17:28:24.688Z,99709.74
2022-08-28T17:33:27.666Z,99712.80
2022-08-28T17:38:30.364Z,99712.42
2022-08-28T17:43:33.373Z,99721.45
2022-08-28T17:48:37.093Z,99727.65
2022-08-28T17:53:40.213Z,99737.11
2022-08-28T17:58:42.842Z,99751.52
2022-08-28T18:03:53.468Z,99762.66
2022-08-28T18:08:56.622Z,99769.54
2022-08-28T18:14:02.344Z,99771.84
2022-08-28T18:19:06.537Z,99775.28
2022-08-28T18:24:13.008Z,99772.48
2022-08-28T18:29:15.821Z,99785.73
2022-08-28T18:34:18.514Z,99789.33
2022-08-28T18:39:29.535Z,99792.13
2022-08-28T18:44:32.876Z,99789.27
2022-08-28T18:49:35.469Z,99791.16
2022-08-28T18:54:38.533Z,99792.88
2022-08-28T18:59:41.131Z,99794.06
2022-08-28T19:04:44.852Z,99789.28
2022-08-28T19:09:47.481Z,99789.04
2022-08-28T19:14:53.284Z,99786.26
2022-08-28T19:19:55.930Z,99785.83
2022-08-28T19:24:58.889Z,99784.65
2022-08-28T19:30:04.216Z,99781.34
2022-08-28T19:35:07.454Z,99779.30
2022-08-28T19:40:10.877Z,99782.99
2022-08-28T19:45:14.954Z,99784.33
2022-08-28T19:50:18.366Z,99788.11
2022-08-28T19:55:25.859Z,99796.66
2022-08-28T20:00:33.146Z,99801.38
2022-08-28T20:05:38.190Z,99808.96
2022-08-28T20:10:42.566Z,99810.55
2022-08-28T20:15:46.808Z,99809.11
2022-08-28T20:20:51.401Z,99815.92
2022-08-28T20:25:54.594Z,99823.61
2022-08-28T20:30:57.463Z,99826.91
2022-08-28T20:36:04.725Z,99842.74
2022-08-28T20:41:09.633Z,99839.81
2022-08-28T20:46:13.885Z,99836.91
2022-08-28T20:51:16.694Z,99844.58
2022-08-28T20:56:19.512Z,99850.10
2022-08-28T21:01:22.751Z,99856.48
2022-08-28T21:06:25.443Z,99862.99
2022-08-28T21:11:29.540Z,99878.02
2022-08-28T21:16:34.169Z,99904.34
2022-08-28T21:21:37.600Z,99933.09
2022-08-28T21:26:50.671Z,99941.31
2022-08-28T21:31:54.640Z,99954.52
2022-08-28T21:36:58.008Z,99966.48
2022-08-28T21:42:00.738Z,99978.88
2022-08-28T21:47:03.489Z,99986.80
2022-08-28T21:52:06.368Z,100000.41
2022-08-28T21:57:08.962Z,99997.11
2022-08-28T22:02:11.617Z,99997.27
2022-08-28T22:07:14.356Z,99986.30
2022-08-28T22:12:16.979Z,99967.06
2022-08-28T22:17:19.569Z,99960.16
2022-08-28T22:22:41.749Z,99966.12
2022-08-28T22:27:44.523Z,99952.34
2022-08-28T22:32:47.178Z,99935.10
2022-08-28T22:37:49.878Z,99922.48
2022-08-28T22:42:52.834Z,99906.93
2022-08-28T22:47:55.449Z,99897.27
2022-08-28T22:52:58.111Z,99889.20
2022-08-28T22:58:01.006Z,99882.13
2022-08-28T23:03:04.329Z,99873.56
2022-08-28T23:08:06.988Z,99872.02
2022-08-28T23:13:09.640Z,99886.56
2022-08-28T23:18:17.072Z,99894.14
2022-08-28T23:23:20.261Z,99902.70
2022-08-28T23:28:23.505Z,99909.67
2022-08-28T23:33:26.101Z,99918.34
2022-08-28T23:38:28.674Z,99927.11
2022-08-28T23:43:31.578Z,99931.20
2022-08-28T23:48:35.684Z,99937.83
2022-08-28T23:53:38.877Z,99945.27
2022-08-28T23:58:43.270Z,99949.38
